Time;durP1;ratioP1;P1;durP2;ratioP2;P2;SDS_P1;SDS_P2;PMS_P1;PMS_P2;Temp;Humidity;BMP_temperature;BMP_pressure;BME280_temperature;BME280_humidity;BME280_pressure;Samples;Min_cycle;Max_cycle;Signal;HPM_P1;HPM_P2
2021/08/12 00:01:22;;;;;;;5.18;3.15;;;23.00;53.10;;;;;;5092671;28;20495;-75
2021/08/12 00:03:48;;;;;;;4.68;3.15;;;23.00;52.70;;;;;;5092754;28;20056;-75
2021/08/12 00:06:14;;;;;;;5.93;3.60;;;22.90;52.70;;;;;;5092911;28;20481;-75
2021/08/12 00:08:40;;;;;;;4.00;2.65;;;22.90;52.70;;;;;;5091426;28;20035;-75
2021/08/12 00:11:07;;;;;;;4.03;2.90;;;22.80;52.70;;;;;;5092619;28;20036;-75
2021/08/12 00:13:33;;;;;;;5.15;3.13;;;22.80;52.90;;;;;;5074135;28;20028;-74
2021/08/12 00:16:00;;;;;;;5.18;2.88;;;22.80;53.00;;;;;;5077572;28;20072;-75
2021/08/12 00:18:26;;;;;;;4.68;2.88;;;22.80;53.00;;;;;;5061772;28;20389;-75
2021/08/12 00:20:52;;;;;;;4.80;2.97;;;22.80;53.10;;;;;;5073768;28;20020;-74
2021/08/12 00:23:18;;;;;;;4.50;2.83;;;22.80;53.30;;;;;;5078404;28;20485;-75
2021/08/12 00:25:46;;;;;;;15.95;2.67;;;22.80;53.30;;;;;;5091208;28;20485;-75
2021/08/12 00:28:13;;;;;;;7.80;3.40;;;22.70;53.30;;;;;;5073257;28;20039;-75
2021/08/12 00:30:39;;;;;;;4.82;2.80;;;22.80;53.40;;;;;;5091966;28;20074;-75
2021/08/12 00:33:04;;;;;;;4.97;3.50;;;22.70;53.40;;;;;;5083916;28;20420;-75
2021/08/12 00:35:30;;;;;;;9.25;3.35;;;22.70;53.60;;;;;;5087122;28;20116;-75
2021/08/12 00:37:56;;;;;;;5.13;2.85;;;22.70;53.90;;;;;;5068995;28;20377;-75
2021/08/12 00:40:23;;;;;;;6.22;2.83;;;22.70;53.60;;;;;;5092480;28;20520;-74
2021/08/12 00:42:49;;;;;;;7.25;3.28;;;22.70;53.60;;;;;;5092808;28;20104;-75
2021/08/12 00:45:15;;;;;;;4.40;3.35;;;22.60;53.60;;;;;;5092186;28;20111;-75
2021/08/12 00:47:41;;;;;;;7.13;3.50;;;22.60;53.70;;;;;;5091804;28;20519;-74
2021/08/12 00:50:07;;;;;;;6.30;3.03;;;22.60;53.90;;;;;;5092420;28;20024;-75
2021/08/12 00:52:33;;;;;;;4.90;3.03;;;22.60;54.20;;;;;;5092253;28;20021;-75
2021/08/12 00:55:00;;;;;;;6.72;2.63;;;22.50;54.10;;;;;;5091329;28;20070;-75
2021/08/12 00:57:26;;;;;;;5.82;3.33;;;22.50;54.30;;;;;;5072095;28;20017;-75
2021/08/12 00:59:52;;;;;;;10.15;3.67;;;22.50;54.30;;;;;;5090210;28;20031;-75
2021/08/12 01:02:18;;;;;;;5.85;3.50;;;22.50;54.50;;;;;;5081832;28;20052;-75
2021/08/12 01:04:50;;;;;;;3.75;3.03;;;22.50;54.80;;;;;;5092508;28;20489;-75
2021/08/12 01:07:25;;;;;;;6.95;3.10;;;22.50;55.10;;;;;;5092340;28;20533;-75
2021/08/12 01:10:13;;;;;;;5.90;3.42;;;22.40;54.90;;;;;;5073495;28;20390;-75
2021/08/12 01:12:57;;;;;;;5.32;3.20;;;22.40;54.90;;;;;;5092408;28;20482;-75
2021/08/12 01:15:42;;;;;;;;;;;22.50;54.90;;;;;;5092057;28;20039;-75
2021/08/12 01:18:34;;;;;;;7.45;3.95;;;22.50;54.00;;;;;;5091675;28;19915;-75
2021/08/12 01:21:24;;;;;;;5.63;3.67;;;22.40;54.30;;;;;;5067211;28;20557;-75
2021/08/12 01:23:50;;;;;;;4.93;3.35;;;22.30;54.40;;;;;;5072841;28;20025;-75
2021/08/12 01:26:18;;;;;;;4.85;2.85;;;22.30;54.40;;;;;;5072770;28;20103;-74
2021/08/12 01:28:47;;;;;;;9.75;3.53;;;22.30;55.00;;;;;;5079909;28;20063;-76
2021/08/12 01:31:19;;;;;;;5.65;3.45;;;22.20;55.20;;;;;;5086897;28;20025;-74
2021/08/12 01:34:06;;;;;;;6.15;3.08;;;22.20;55.10;;;;;;5072704;28;20082;-74
2021/08/12 01:36:34;;;;;;;4.75;3.45;;;22.10;55.00;;;;;;5079685;28;20107;-74
2021/08/12 01:39:04;;;;;;;4.40;2.90;;;22.20;55.00;;;;;;5073815;28;20106;-75
2021/08/12 01:41:30;;;;;;;3.95;2.72;;;22.10;55.20;;;;;;5073661;28;20036;-75
2021/08/12 01:43:58;;;;;;;6.10;3.22;;;22.10;55.10;;;;;;5092001;28;20016;-75
2021/08/12 01:46:26;;;;;;;5.18;3.13;;;22.00;55.00;;;;;;5091682;28;20016;-76
2021/08/12 01:48:54;;;;;;;7.20;3.22;;;22.00;55.00;;;;;;5096109;28;20023;-75
2021/08/12 01:51:25;;;;;;;6.68;3.72;;;22.00;55.10;;;;;;5089338;28;20433;-75
2021/08/12 01:53:51;;;;;;;6.13;3.10;;;21.90;55.20;;;;;;5075707;28;20059;-75
2021/08/12 01:56:19;;;;;;;5.47;3.33;;;21.90;55.60;;;;;;5064510;28;20073;-75
2021/08/12 01:58:46;;;;;;;3.90;2.60;;;21.90;55.60;;;;;;5084329;28;20529;-75
2021/08/12 02:01:12;;;;;;;5.57;3.03;;;21.90;55.70;;;;;;5077788;28;20385;-75
2021/08/12 02:03:40;;;;;;;4.75;3.40;;;21.90;55.60;;;;;;5079516;28;20028;-75
2021/08/12 02:06:07;;;;;;;5.78;3.75;;;21.80;56.10;;;;;;5080223;28;20054;-75
2021/08/12 02:08:33;;;;;;;5.40;3.25;;;21.80;56.20;;;;;;5096730;28;20464;-75
2021/08/12 02:10:59;;;;;;;6.55;3.55;;;21.80;56.30;;;;;;5095796;28;20024;-75
2021/08/12 02:13:26;;;;;;;6.60;3.53;;;21.80;56.30;;;;;;5078382;28;20031;-74
2021/08/12 02:15:52;;;;;;;4.10;2.97;;;21.70;56.20;;;;;;5077851;28;20493;-74
2021/08/12 02:18:18;;;;;;;6.03;2.83;;;21.70;56.20;;;;;;5089101;28;20039;-75
2021/08/12 02:20:55;;;;;;;5.28;2.17;;;21.70;56.20;;;;;;5075961;28;20067;-75
2021/08/12 02:23:27;;;;;;;4.72;2.80;;;21.70;56.40;;;;;;5058147;28;20032;-75
2021/08/12 02:26:09;;;;;;;4.13;2.90;;;21.60;56.20;;;;;;5059630;28;20025;-74
2021/08/12 02:28:36;;;;;;;4.50;3.03;;;21.70;56.60;;;;;;5095368;28;20115;-75
2021/08/12 02:31:05;;;;;;;3.13;2.65;;;21.60;56.40;;;;;;5095948;28;20453;-75
2021/08/12 02:33:36;;;;;;;5.22;3.22;;;21.60;56.60;;;;;;5095664;28;20031;-75
2021/08/12 02:36:08;;;;;;;4.95;3.13;;;21.60;56.70;;;;;;5076464;28;20092;-74
2021/08/12 02:38:38;;;;;;;6.10;3.40;;;21.60;56.60;;;;;;5096085;28;20474;-74
2021/08/12 02:41:06;;;;;;;6.82;2.70;;;21.60;56.60;;;;;;5073143;28;20025;-75
2021/08/12 02:43:36;;;;;;;5.03;3.55;;;21.60;56.60;;;;;;5075578;28;20031;-74
2021/08/12 02:46:03;;;;;;;9.93;4.03;;;21.60;57.00;;;;;;5077110;28;20024;-74
2021/08/12 02:48:31;;;;;;;8.00;3.60;;;21.50;57.40;;;;;;5070010;28;20060;-74
2021/08/12 02:50:59;;;;;;;7.20;3.80;;;21.50;57.60;;;;;;5057605;28;20039;-76
2021/08/12 02:53:27;;;;;;;7.43;3.55;;;21.40;57.50;;;;;;5075301;28;20132;-75
2021/08/12 02:55:54;;;;;;;6.25;3.53;;;21.40;57.60;;;;;;5085135;28;20016;-75
2021/08/12 02:58:21;;;;;;;5.35;3.55;;;21.40;57.90;;;;;;5095683;28;20032;-75
2021/08/12 03:00:48;;;;;;;6.47;4.25;;;21.40;57.80;;;;;;5095650;28;20470;-75
2021/08/12 03:03:18;;;;;;;4.97;3.30;;;21.40;57.80;;;;;;5066560;28;20032;-74
2021/08/12 03:05:46;;;;;;;6.53;3.95;;;21.40;57.70;;;;;;5075598;28;20381;-75
2021/08/12 03:08:17;;;;;;;6.15;3.38;;;21.30;57.40;;;;;;5086019;28;20127;-74
2021/08/12 03:10:43;;;;;;;5.93;3.40;;;21.30;57.60;;;;;;5075197;28;20020;-76
2021/08/12 03:13:10;;;;;;;8.35;3.03;;;21.30;57.50;;;;;;5075175;28;20031;-76
2021/08/12 03:15:37;;;;;;;5.25;3.22;;;21.30;57.50;;;;;;5075164;28;20024;-75
2021/08/12 03:18:04;;;;;;;4.10;3.05;;;21.30;58.10;;;;;;5092732;28;20028;-75
2021/08/12 03:20:30;;;;;;;4.93;3.22;;;21.30;57.60;;;;;;5095097;28;20099;-75
2021/08/12 03:22:57;;;;;;;6.70;2.97;;;21.20;57.60;;;;;;5059220;28;20024;-75
2021/08/12 03:25:23;;;;;;;7.45;4.28;;;21.20;57.70;;;;;;5095121;28;20020;-74
2021/08/12 03:27:49;;;;;;;7.70;3.42;;;21.20;57.90;;;;;;5094314;28;20489;-75
2021/08/12 03:30:16;;;;;;;6.60;3.80;;;21.20;57.90;;;;;;5094711;28;20059;-74
2021/08/12 03:32:42;;;;;;;6.93;3.92;;;21.10;58.10;;;;;;5094654;28;20028;-75
2021/08/12 03:35:08;;;;;;;6.80;3.65;;;21.10;58.00;;;;;;5076645;28;20028;-75
2021/08/12 03:37:34;;;;;;;7.53;3.30;;;21.10;58.60;;;;;;5093702;28;20031;-75
2021/08/12 03:39:59;;;;;;;5.43;3.33;;;21.10;58.00;;;;;;5074721;28;20029;-75
2021/08/12 03:42:25;;;;;;;12.50;4.15;;;21.10;58.20;;;;;;5074498;28;20028;-75
2021/08/12 03:44:51;;;;;;;4.68;3.05;;;21.10;58.80;;;;;;5074711;28;20104;-75
2021/08/12 03:47:20;;;;;;;10.45;4.20;;;21.10;58.60;;;;;;5067037;28;20032;-74
2021/08/12 03:49:46;;;;;;;6.75;3.72;;;21.00;58.70;;;;;;5094709;28;20020;-75
2021/08/12 03:52:12;;;;;;;5.57;3.50;;;21.00;58.70;;;;;;5080237;28;20389;-76
2021/08/12 03:54:38;;;;;;;6.63;3.63;;;21.00;58.70;;;;;;5074113;28;20123;-75
2021/08/12 03:57:04;;;;;;;6.80;3.33;;;21.00;58.80;;;;;;5064439;28;20024;-75
2021/08/12 03:59:30;;;;;;;4.72;3.15;;;21.00;58.80;;;;;;5094493;28;20131;-75
2021/08/12 04:01:56;;;;;;;6.25;3.05;;;21.00;59.40;;;;;;5068468;28;20516;-75
2021/08/12 04:04:22;;;;;;;5.10;3.58;;;21.00;58.90;;;;;;5094374;28;20047;-74
2021/08/12 04:06:48;;;;;;;5.65;3.83;;;21.00;58.90;;;;;;5088586;28;20095;-73
2021/08/12 04:09:14;;;;;;;7.57;3.05;;;21.00;58.80;;;;;;5075461;28;20063;-74
2021/08/12 04:11:40;;;;;;;6.07;3.72;;;21.00;58.80;;;;;;5093832;28;20042;-75
2021/08/12 04:14:06;;;;;;;5.38;3.47;;;21.00;58.90;;;;;;5094081;28;20024;-75
2021/08/12 04:16:32;;;;;;;6.32;3.65;;;21.00;58.90;;;;;;5093352;28;20481;-75
2021/08/12 04:18:57;;;;;;;13.57;3.28;;;21.00;59.00;;;;;;5075845;28;20024;-76
2021/08/12 04:21:23;;;;;;;5.18;3.17;;;21.00;59.20;;;;;;5086281;28;20028;-75
2021/08/12 04:23:49;;;;;;;10.57;3.65;;;21.00;59.20;;;;;;5073645;28;20500;-75
2021/08/12 04:26:15;;;;;;;5.90;3.35;;;21.00;59.20;;;;;;5073513;28;20024;-76
2021/08/12 04:28:40;;;;;;;6.60;3.80;;;21.10;59.20;;;;;;5055679;28;20032;-75
2021/08/12 04:31:06;;;;;;;11.80;4.68;;;21.10;59.30;;;;;;5055417;28;20035;-74
2021/08/12 04:33:32;;;;;;;8.75;4.00;;;21.10;59.70;;;;;;5082299;28;20028;-75
2021/08/12 04:35:58;;;;;;;10.73;4.18;;;21.10;59.60;;;;;;5089596;28;20113;-75
2021/08/12 04:38:27;;;;;;;7.95;4.10;;;21.10;59.50;;;;;;5074091;28;20117;-75
2021/08/12 04:40:54;;;;;;;5.15;3.42;;;21.10;59.50;;;;;;5092805;28;20020;-76
2021/08/12 04:43:20;;;;;;;6.28;3.83;;;21.20;59.70;;;;;;5093665;28;20145;-74
2021/08/12 04:45:46;;;;;;;4.22;3.13;;;21.20;59.80;;;;;;5075035;28;20031;-75
2021/08/12 04:48:15;;;;;;;7.57;3.83;;;21.20;59.60;;;;;;5093345;28;20024;-75
2021/08/12 04:50:40;;;;;;;11.48;4.30;;;21.30;59.80;;;;;;5090214;28;20135;-73
2021/08/12 04:53:06;;;;;;;12.27;4.60;;;21.30;59.80;;;;;;5072933;28;20494;-73
2021/08/12 04:55:32;;;;;;;10.15;3.90;;;21.30;59.70;;;;;;5073016;28;20062;-73
2021/08/12 04:57:58;;;;;;;14.45;5.75;;;21.30;59.60;;;;;;5073079;28;20382;-74
2021/08/12 05:00:24;;;;;;;29.38;5.55;;;21.40;59.70;;;;;;5084070;28;20481;-74
2021/08/12 05:02:50;;;;;;;22.90;5.35;;;21.40;59.60;;;;;;5073625;28;20034;-74
2021/08/12 05:05:16;;;;;;;7.25;4.40;;;21.50;59.50;;;;;;5072589;28;20061;-74
2021/08/12 05:07:42;;;;;;;11.65;4.63;;;21.50;59.40;;;;;;5072618;28;20437;-74
2021/08/12 05:10:08;;;;;;;5.55;3.60;;;21.60;59.40;;;;;;5081343;28;20108;-74
2021/08/12 05:12:34;;;;;;;5.30;3.80;;;21.60;59.30;;;;;;5093006;28;20023;-74
2021/08/12 05:15:01;;;;;;;6.75;3.70;;;21.70;59.20;;;;;;5093162;28;20024;-74
2021/08/12 05:17:27;;;;;;;10.32;4.13;;;21.80;59.20;;;;;;5058585;28;20029;-75
2021/08/12 05:19:53;;;;;;;7.28;3.80;;;21.80;59.20;;;;;;5078861;28;20381;-74
2021/08/12 05:22:20;;;;;;;10.80;4.72;;;21.80;59.10;;;;;;5076983;28;20036;-74
2021/08/12 05:24:46;;;;;;;19.35;6.07;;;21.90;59.10;;;;;;5072800;28;20012;-74
2021/08/12 05:27:12;;;;;;;14.07;6.07;;;21.90;58.90;;;;;;5072735;28;20029;-74
2021/08/12 05:29:38;;;;;;;28.45;5.75;;;22.00;59.00;;;;;;5076367;28;20030;-74
2021/08/12 05:32:04;;;;;;;17.63;5.63;;;22.10;58.80;;;;;;5067121;28;20033;-75
2021/08/12 05:34:30;;;;;;;14.35;5.93;;;22.10;58.80;;;;;;5072678;28;20425;-74
2021/08/12 05:36:56;;;;;;;22.50;6.53;;;22.10;58.70;;;;;;5086347;28;20028;-75
2021/08/12 05:39:21;;;;;;;28.10;6.13;;;22.20;58.60;;;;;;5092260;28;20059;-75
2021/08/12 05:41:47;;;;;;;21.08;6.50;;;22.30;58.40;;;;;;5081997;28;20028;-74
2021/08/12 05:44:13;;;;;;;15.73;5.20;;;22.30;58.30;;;;;;5054582;28;20055;-74
2021/08/12 05:46:39;;;;;;;14.82;4.82;;;22.40;58.30;;;;;;5072510;28;20078;-74
2021/08/12 05:49:05;;;;;;;9.40;5.25;;;22.50;58.20;;;;;;5072527;28;20016;-75
2021/08/12 05:51:31;;;;;;;10.07;4.20;;;22.50;58.00;;;;;;5083010;28;20032;-74
2021/08/12 05:53:58;;;;;;;9.10;4.13;;;22.50;57.90;;;;;;5051026;28;20044;-75
2021/08/12 05:56:23;;;;;;;6.68;4.47;;;22.60;57.70;;;;;;5051047;28;20029;-74
2021/08/12 05:58:49;;;;;;;11.05;4.47;;;22.60;57.60;;;;;;5052584;28;20091;-75
2021/08/12 06:01:15;;;;;;;12.30;4.75;;;22.70;57.40;;;;;;5063214;28;20036;-75
2021/08/12 06:03:41;;;;;;;10.27;4.50;;;22.70;57.20;;;;;;5072267;28;20023;-75
2021/08/12 06:06:08;;;;;;;18.30;5.65;;;22.80;57.10;;;;;;5063246;28;20021;-74
2021/08/12 06:08:33;;;;;;;20.48;5.40;;;22.90;57.10;;;;;;5053660;28;20032;-75
2021/08/12 06:10:59;;;;;;;12.63;4.40;;;22.90;56.90;;;;;;5069546;28;20025;-74
2021/08/12 06:13:25;;;;;;;11.82;4.68;;;23.00;56.80;;;;;;5053870;28;20065;-74
2021/08/12 06:15:51;;;;;;;6.78;3.85;;;23.10;56.70;;;;;;5052433;28;20021;-75
2021/08/12 06:18:17;;;;;;;8.90;4.40;;;23.10;56.60;;;;;;5053313;28;20378;-74
2021/08/12 06:20:43;;;;;;;12.20;4.43;;;23.20;56.50;;;;;;5059406;28;20083;-74
2021/08/12 06:23:10;;;;;;;12.48;5.47;;;23.30;56.40;;;;;;5054972;28;20055;-74
2021/08/12 06:25:38;;;;;;;11.57;5.05;;;23.40;56.20;;;;;;5067882;28;20113;-74
2021/08/12 06:28:05;;;;;;;11.18;5.07;;;23.40;56.10;;;;;;5067831;28;20492;-73
2021/08/12 06:30:32;;;;;;;8.85;4.90;;;23.50;55.90;;;;;;5057581;28;20033;-75
2021/08/12 06:32:57;;;;;;;10.98;7.57;;;23.60;56.00;;;;;;5057592;28;20032;-73
2021/08/12 06:35:24;;;;;;;16.02;9.90;;;23.70;55.80;;;;;;5055556;28;20021;-74
2021/08/12 06:37:51;;;;;;;14.23;6.80;;;23.70;55.60;;;;;;5055680;28;20021;-75
2021/08/12 06:40:22;;;;;;;78.88;53.33;;;23.80;55.60;;;;;;5074105;28;20382;-73
2021/08/12 06:42:48;;;;;;;78.90;51.28;;;23.90;55.30;;;;;;5055552;28;20402;-73
2021/08/12 06:45:16;;;;;;;56.22;38.17;;;24.00;55.30;;;;;;5055377;28;20025;-74
2021/08/12 06:47:42;;;;;;;53.85;37.75;;;24.00;54.90;;;;;;5055576;28;20035;-75
2021/08/12 06:50:08;;;;;;;48.90;36.03;;;24.20;54.70;;;;;;5069556;28;20017;-74
2021/08/12 06:52:35;;;;;;;54.00;30.25;;;24.20;54.70;;;;;;5074823;28;20060;-74
2021/08/12 06:55:02;;;;;;;44.90;27.33;;;24.30;54.70;;;;;;5093464;28;20121;-74
2021/08/12 06:57:28;;;;;;;42.42;26.45;;;24.40;54.50;;;;;;5095000;28;20065;-74
2021/08/12 06:59:54;;;;;;;38.28;23.73;;;24.50;54.20;;;;;;5094815;28;20060;-74
2021/08/12 07:02:20;;;;;;;30.50;21.60;;;24.60;54.00;;;;;;5079800;28;20167;-75
2021/08/12 07:04:46;;;;;;;49.03;31.80;;;24.70;53.90;;;;;;5075255;28;20477;-74
2021/08/12 07:07:12;;;;;;;38.83;24.92;;;24.70;53.70;;;;;;5056761;28;20052;-74
2021/08/12 07:09:38;;;;;;;41.92;28.85;;;24.80;53.60;;;;;;5084743;28;20490;-74
2021/08/12 07:12:05;;;;;;;34.88;23.42;;;24.90;53.10;;;;;;5077225;28;20074;-74
2021/08/12 07:14:30;;;;;;;36.97;23.27;;;24.90;53.10;;;;;;5095376;28;20034;-76
2021/08/12 07:16:57;;;;;;;37.15;24.80;;;25.00;53.00;;;;;;5093762;28;20024;-74
2021/08/12 07:19:23;;;;;;;41.80;29.02;;;25.10;52.60;;;;;;5094874;28;20048;-75
2021/08/12 07:21:51;;;;;;;39.92;25.77;;;25.20;52.40;;;;;;5083975;28;20103;-75
2021/08/12 07:24:17;;;;;;;33.10;23.60;;;25.20;52.50;;;;;;5074958;28;20454;-76
2021/08/12 07:26:46;;;;;;;41.80;26.08;;;25.30;52.30;;;;;;5056937;28;20021;-74
2021/08/12 07:29:13;;;;;;;45.75;32.25;;;25.40;51.50;;;;;;5064103;28;20047;-74
2021/08/12 07:31:39;;;;;;;32.97;22.13;;;25.50;51.00;;;;;;5094149;28;20530;-74
2021/08/12 07:34:05;;;;;;;36.88;26.17;;;25.50;50.70;;;;;;5076846;28;20028;-75
2021/08/12 07:36:33;;;;;;;46.63;33.45;;;25.60;50.90;;;;;;5094500;28;20098;-74
2021/08/12 07:38:59;;;;;;;49.92;36.42;;;25.60;50.60;;;;;;5076777;28;20035;-75
2021/08/12 07:41:25;;;;;;;69.40;46.83;;;25.70;50.60;;;;;;5086965;28;20028;-74
2021/08/12 07:43:50;;;;;;;60.55;44.58;;;25.80;50.90;;;;;;5073910;28;20036;-74
2021/08/12 07:46:17;;;;;;;57.92;40.10;;;25.80;50.20;;;;;;5080150;28;20055;-75
2021/08/12 07:48:42;;;;;;;43.63;32.67;;;25.90;49.80;;;;;;5094716;28;20111;-75
2021/08/12 07:51:08;;;;;;;48.72;34.03;;;26.00;50.00;;;;;;5089204;28;20163;-75
2021/08/12 07:53:34;;;;;;;34.10;23.55;;;26.00;49.90;;;;;;5073741;28;20076;-76
2021/08/12 07:56:00;;;;;;;25.60;16.30;;;26.10;49.60;;;;;;5077860;28;20470;-75
2021/08/12 07:58:27;;;;;;;17.63;11.68;;;26.10;49.30;;;;;;5076424;28;20093;-75
2021/08/12 08:00:53;;;;;;;17.73;12.10;;;26.20;49.10;;;;;;5093731;28;20020;-76
2021/08/12 08:03:19;;;;;;;16.58;10.45;;;26.30;48.90;;;;;;5092243;28;20016;-75
2021/08/12 08:05:45;;;;;;;10.10;7.15;;;26.30;48.60;;;;;;5093474;28;20043;-75
2021/08/12 08:08:11;;;;;;;15.00;7.30;;;26.40;47.90;;;;;;5093318;28;20024;-74
2021/08/12 08:10:37;;;;;;;11.70;6.38;;;26.40;48.10;;;;;;5093435;28;20433;-75
2021/08/12 08:13:03;;;;;;;12.00;6.97;;;26.40;48.60;;;;;;5086747;28;20020;-75
2021/08/12 08:15:29;;;;;;;8.05;5.30;;;26.50;48.30;;;;;;5072115;28;20028;-75
2021/08/12 08:17:55;;;;;;;25.77;5.60;;;26.60;48.60;;;;;;5069518;28;20031;-76
2021/08/12 08:20:20;;;;;;;11.88;4.93;;;26.70;48.40;;;;;;5094385;28;20039;-75
2021/08/12 08:22:47;;;;;;;7.45;4.65;;;26.70;48.20;;;;;;5092370;28;20031;-76
2021/08/12 08:25:14;;;;;;;6.25;4.72;;;26.80;48.30;;;;;;5092854;28;20058;-75
2021/08/12 08:27:39;;;;;;;19.80;5.05;;;26.90;47.90;;;;;;5093720;28;20524;-75
2021/08/12 08:30:06;;;;;;;10.50;4.40;;;26.90;47.10;;;;;;5093383;28;20052;-75
2021/08/12 08:32:32;;;;;;;10.95;4.75;;;26.90;47.40;;;;;;5075408;28;20365;-75
2021/08/12 08:34:58;;;;;;;9.10;5.53;;;27.00;47.70;;;;;;5092580;28;20110;-75
2021/08/12 08:37:24;;;;;;;9.05;5.15;;;27.00;47.70;;;;;;5075509;28;20032;-75
2021/08/12 08:39:50;;;;;;;7.15;4.55;;;27.10;47.70;;;;;;5074604;28;20440;-75
2021/08/12 08:42:16;;;;;;;8.73;5.07;;;27.20;47.60;;;;;;5093381;28;20445;-75
2021/08/12 08:44:45;;;;;;;11.43;5.00;;;27.20;47.50;;;;;;5075424;28;20409;-74
2021/08/12 08:47:14;;;;;;;7.05;4.72;;;27.30;47.60;;;;;;5077209;28;20023;-76
2021/08/12 08:49:45;;;;;;;6.32;4.40;;;27.30;47.40;;;;;;5073097;28;20094;-76
2021/08/12 08:52:12;;;;;;;8.70;4.50;;;27.40;47.40;;;;;;5091293;28;20040;-77
2021/08/12 08:54:39;;;;;;;6.45;4.07;;;27.50;47.60;;;;;;5092837;28;20413;-75
2021/08/12 08:57:06;;;;;;;6.72;4.15;;;27.60;46.90;;;;;;5091636;28;20028;-75
2021/08/12 08:59:36;;;;;;;9.30;5.75;;;27.60;47.00;;;;;;5078206;28;20028;-74
2021/08/12 09:02:03;;;;;;;11.93;4.32;;;27.60;46.20;;;;;;5074892;28;20119;-80
2021/08/12 09:04:28;;;;;;;10.00;4.75;;;27.70;46.50;;;;;;5064890;28;20140;-75
2021/08/12 09:06:54;;;;;;;9.52;5.50;;;27.70;46.60;;;;;;5085579;28;20047;-74
2021/08/12 09:09:20;;;;;;;8.27;4.70;;;27.90;45.80;;;;;;5087365;28;20103;-77
2021/08/12 09:11:46;;;;;;;8.32;5.38;;;27.90;45.20;;;;;;5077713;28;20032;-78
2021/08/12 09:14:43;;;;;;;5.03;3.90;;;27.90;45.60;;;;;;5079585;28;20028;-81
2021/08/12 09:17:30;;;;;;;8.00;4.82;;;28.00;46.20;;;;;;5072166;28;20031;-80
2021/08/12 09:20:06;;;;;;;7.45;4.70;;;28.10;45.70;;;;;;5054434;28;20028;-75
2021/08/12 09:22:54;;;;;;;10.27;6.90;;;28.10;45.20;;;;;;5076079;28;20036;-75
2021/08/12 09:25:47;;;;;;;7.35;5.53;;;28.20;45.60;;;;;;5074768;28;20020;-80
2021/08/12 09:28:27;;;;;;;6.22;4.43;;;28.20;45.80;;;;;;5063816;28;20111;-78
2021/08/12 09:30:59;;;;;;;8.38;4.55;;;28.30;45.60;;;;;;5072271;28;20496;-78
2021/08/12 09:33:27;;;;;;;7.60;4.05;;;28.40;45.20;;;;;;5054303;28;20032;-75
2021/08/12 09:35:53;;;;;;;6.55;4.22;;;28.50;45.10;;;;;;5070754;28;20025;-79
2021/08/12 09:38:21;;;;;;;8.00;4.53;;;28.60;45.40;;;;;;5070732;28;20424;-82
2021/08/12 09:40:55;;;;;;;6.55;4.55;;;28.60;45.60;;;;;;5071983;28;20032;-70
2021/08/12 09:43:22;;;;;;;6.25;4.13;;;28.70;45.00;;;;;;5091192;28;20036;-79
2021/08/12 09:45:51;;;;;;;11.77;4.43;;;28.80;44.70;;;;;;5091545;28;20025;-74
2021/08/12 09:48:19;;;;;;;6.57;4.20;;;28.90;44.90;;;;;;5073765;28;20024;-75
2021/08/12 09:51:06;;;;;;;6.47;4.20;;;28.90;45.00;;;;;;5091841;28;20034;-74
2021/08/12 09:53:32;;;;;;;6.43;4.20;;;29.00;44.70;;;;;;5091874;28;20040;-77
2021/08/12 09:56:09;;;;;;;12.45;4.07;;;29.10;44.20;;;;;;5092502;28;20027;-74
2021/08/12 09:58:36;;;;;;;7.63;4.57;;;29.10;44.30;;;;;;5091519;28;20035;-74
2021/08/12 10:01:25;;;;;;;9.13;4.80;;;29.20;44.10;;;;;;5091947;28;20023;-76
2021/08/12 10:03:51;;;;;;;6.80;4.45;;;29.20;43.70;;;;;;5091501;28;20153;-79
2021/08/12 10:06:22;;;;;;;5.68;3.97;;;29.20;44.10;;;;;;5073805;28;20020;-70
2021/08/12 10:08:48;;;;;;;9.50;4.05;;;29.30;43.80;;;;;;5094811;28;20426;-73
2021/08/12 10:11:29;;;;;;;6.20;3.72;;;29.30;43.50;;;;;;5095532;28;20059;-77
2021/08/12 10:14:03;;;;;;;6.97;4.55;;;29.40;43.90;;;;;;5077428;28;20142;-80
2021/08/12 10:16:32;;;;;;;10.90;4.18;;;29.40;43.60;;;;;;5094080;28;20044;-76
2021/08/12 10:18:59;;;;;;;6.47;4.47;;;29.40;43.20;;;;;;5093514;28;20024;-77
2021/08/12 10:21:26;;;;;;;5.93;3.90;;;29.50;43.40;;;;;;5095723;28;20493;-78
2021/08/12 10:23:55;;;;;;;7.78;3.83;;;29.60;43.10;;;;;;5095589;28;20024;-78
2021/08/12 10:26:26;;;;;;;6.28;4.03;;;29.60;43.40;;;;;;5076777;28;20035;-72
2021/08/12 10:28:55;;;;;;;4.90;3.80;;;29.60;43.00;;;;;;5093453;28;20051;-75
2021/08/12 10:31:24;;;;;;;5.82;3.75;;;29.70;42.50;;;;;;5092422;28;20522;-78
2021/08/12 10:33:51;;;;;;;5.82;4.10;;;29.80;42.00;;;;;;5094371;28;20051;-75
2021/08/12 10:36:18;;;;;;;5.85;4.25;;;29.80;42.20;;;;;;5094833;28;20489;-75
2021/08/12 10:38:44;;;;;;;7.25;4.95;;;29.90;42.00;;;;;;5087576;28;20037;-76
2021/08/12 10:41:11;;;;;;;6.50;4.32;;;30.00;41.90;;;;;;5095684;28;20124;-78
2021/08/12 10:43:38;;;;;;;8.10;5.20;;;30.00;42.00;;;;;;5095300;28;20112;-80
2021/08/12 10:46:04;;;;;;;5.63;4.05;;;30.10;41.70;;;;;;5094846;28;20016;-77
2021/08/12 10:48:32;;;;;;;5.80;4.07;;;30.20;41.20;;;;;;5089169;28;20534;-78
2021/08/12 10:51:13;;;;;;;7.82;3.63;;;30.20;40.50;;;;;;5088759;28;20040;-77
2021/08/12 10:53:44;;;;;;;8.50;6.32;;;30.30;40.40;;;;;;5057327;28;20072;-80
2021/08/12 10:56:10;;;;;;;7.10;5.03;;;30.40;40.90;;;;;;5076182;28;20028;-75
2021/08/12 10:58:40;;;;;;;9.18;5.00;;;30.60;41.00;;;;;;5057636;28;20036;-73
2021/08/12 11:01:07;;;;;;;7.07;3.85;;;30.70;40.30;;;;;;5086499;28;20024;-76
2021/08/12 11:03:36;;;;;;;10.45;6.10;;;30.80;40.30;;;;;;5094937;28;20109;-75
2021/08/12 11:06:06;;;;;;;10.77;7.60;;;30.90;40.70;;;;;;5094640;28;20046;-76
2021/08/12 11:08:51;;;;;;;14.65;6.47;;;31.00;40.70;;;;;;5076321;28;20032;-71
2021/08/12 11:11:40;;;;;;;7.60;5.65;;;31.30;40.50;;;;;;5094489;28;20448;-70
2021/08/12 11:14:13;;;;;;;14.05;7.70;;;31.40;39.70;;;;;;5085542;28;20055;-71
2021/08/12 11:16:42;;;;;;;10.18;7.35;;;31.60;39.40;;;;;;5094666;28;20032;-71
2021/08/12 11:19:25;;;;;;;13.43;9.57;;;31.80;38.30;;;;;;5089638;28;20023;-76
2021/08/12 11:21:52;;;;;;;17.08;9.52;;;31.90;38.40;;;;;;5076267;28;20020;-73
2021/08/12 11:24:38;;;;;;;16.77;13.57;;;32.00;38.00;;;;;;5094441;28;20082;-73
2021/08/12 11:27:05;;;;;;;21.33;14.88;;;32.00;37.00;;;;;;5079770;28;20034;-76
2021/08/12 11:29:34;;;;;;;14.77;12.05;;;32.10;37.50;;;;;;5079264;28;20037;-71
2021/08/12 11:32:14;;;;;;;21.50;16.98;;;32.10;37.40;;;;;;5094084;28;20065;-71
2021/08/12 11:34:52;;;;;;;23.50;16.15;;;32.10;37.40;;;;;;5092564;28;20050;-75
2021/08/12 11:37:24;;;;;;;24.00;15.73;;;32.10;37.60;;;;;;5056016;28;20071;-78
2021/08/12 11:39:59;;;;;;;22.00;15.50;;;32.10;37.00;;;;;;5092704;28;20105;-71
2021/08/12 11:42:25;;;;;;;16.33;13.30;;;32.10;36.80;;;;;;5073549;28;20051;-71
2021/08/12 11:44:52;;;;;;;15.10;11.43;;;32.20;37.20;;;;;;5073902;28;20463;-70
2021/08/12 11:47:19;;;;;;;18.30;12.30;;;32.20;37.40;;;;;;5085709;28;20474;-78
2021/08/12 11:49:51;;;;;;;18.58;13.18;;;32.30;37.60;;;;;;5093875;28;20028;-72
2021/08/12 11:52:24;;;;;;;13.45;11.32;;;32.40;37.20;;;;;;5093751;28;20051;-74
2021/08/12 11:54:54;;;;;;;14.82;10.98;;;32.50;36.50;;;;;;5087516;28;20068;-71
2021/08/12 11:57:19;;;;;;;14.88;11.73;;;32.50;36.60;;;;;;5092777;28;20385;-72
2021/08/12 11:59:45;;;;;;;25.00;18.77;;;32.60;37.00;;;;;;5093169;28;20024;-72
2021/08/12 12:02:11;;;;;;;24.27;19.45;;;32.60;36.50;;;;;;5093395;28;20385;-72
2021/08/12 12:04:38;;;;;;;29.92;20.10;;;32.60;36.60;;;;;;5093111;28;20024;-70
2021/08/12 12:07:04;;;;;;;27.55;20.48;;;32.60;36.00;;;;;;5092199;28;20027;-71
2021/08/12 12:09:32;;;;;;;22.55;17.48;;;32.60;36.00;;;;;;5074907;28;20100;-71
2021/08/12 12:12:03;;;;;;;20.30;16.20;;;32.60;35.50;;;;;;5092659;28;20351;-72
2021/08/12 12:14:37;;;;;;;25.63;18.75;;;32.60;35.20;;;;;;5092369;28;20038;-72
2021/08/12 12:17:21;;;;;;;33.33;23.73;;;32.50;35.10;;;;;;5090608;28;20435;-70
2021/08/12 12:20:00;;;;;;;37.47;20.88;;;32.50;34.70;;;;;;5074467;28;20025;-74
2021/08/12 12:22:33;;;;;;;30.98;19.33;;;32.50;34.80;;;;;;5079505;28;20039;-72
2021/08/12 12:25:02;;;;;;;23.25;17.52;;;32.50;35.00;;;;;;5092426;28;20028;-71
2021/08/12 12:27:28;;;;;;;19.85;14.82;;;32.50;35.20;;;;;;5093011;28;20016;-72
2021/08/12 12:30:10;;;;;;;18.92;13.52;;;32.60;34.70;;;;;;5090756;28;20536;-69
2021/08/12 12:32:36;;;;;;;18.40;14.10;;;32.60;34.50;;;;;;5092662;28;20020;-78
2021/08/12 12:35:05;;;;;;;17.05;12.82;;;32.60;34.70;;;;;;5091892;28;20107;-71
2021/08/12 12:37:33;;;;;;;17.65;13.77;;;32.50;34.60;;;;;;5092864;28;20016;-72
2021/08/12 12:39:59;;;;;;;23.95;13.60;;;32.50;34.50;;;;;;5085030;28;20035;-75
2021/08/12 12:42:29;;;;;;;17.77;12.80;;;32.50;34.30;;;;;;5054737;28;20112;-73
2021/08/12 12:45:07;;;;;;;18.77;14.40;;;32.50;34.90;;;;;;5081083;28;20030;-77
2021/08/12 12:47:34;;;;;;;27.00;18.27;;;32.50;34.10;;;;;;5074693;28;20377;-73